Time;durP1;ratioP1;P1;durP2;ratioP2;P2;SDS_P1;SDS_P2;PMS_P1;PMS_P2;Temp;Humidity;BMP_temperature;BMP_pressure;BME280_temperature;BME280_humidity;BME280_pressure;Samples;Min_cycle;Max_cycle;Signal;HPM_P1;HPM_P2
2022/09/28 00:01:24;;;;;;;8.20;6.60;;;;;;;8.43;96.59;99492.22;5030085;28;20042;-70
2022/09/28 00:03:58;;;;;;;9.90;6.43;;;;;;;8.43;96.45;99492.22;5027982;28;20096;-71
2022/09/28 00:06:29;;;;;;;10.20;6.30;;;;;;;8.41;96.59;99492.31;5030405;28;20100;-70
2022/09/28 00:08:57;;;;;;;7.85;5.28;;;;;;;8.41;96.77;99494.94;5027473;28;20193;-71
2022/09/28 00:11:28;;;;;;;5.95;5.07;;;;;;;8.42;96.70;99486.13;5028748;28;20135;-70
2022/09/28 00:14:02;;;;;;;8.05;5.70;;;;;;;8.42;96.65;99494.00;5027659;28;20120;-71
2022/09/28 00:16:34;;;;;;;;;;;;;;;8.39;96.21;99491.50;5028270;28;20042;-70
2022/09/28 00:19:03;;;;;;;10.18;5.80;;;;;;;8.39;96.42;99486.25;5022255;28;20388;-71
2022/09/28 00:21:34;;;;;;;11.65;6.40;;;;;;;8.39;96.60;99487.09;5020631;28;20053;-71
2022/09/28 00:24:14;;;;;;;7.00;5.43;;;;;;;8.37;95.82;99480.22;5021880;28;20100;-70
2022/09/28 00:26:46;;;;;;;7.13;5.97;;;;;;;8.34;95.99;99480.38;5024143;28;20034;-70
2022/09/28 00:29:33;;;;;;;7.50;5.82;;;;;;;8.32;95.89;99480.41;5042807;28;20046;-70
2022/09/28 00:32:05;;;;;;;7.25;5.63;;;;;;;8.31;96.15;99481.31;5042127;28;20057;-70
2022/09/28 00:34:36;;;;;;;6.78;5.90;;;;;;;8.31;96.20;99480.47;5028655;28;20042;-71
2022/09/28 00:37:05;;;;;;;7.15;5.80;;;;;;;8.31;96.39;99491.00;5030622;28;20046;-70
2022/09/28 00:39:34;;;;;;;8.95;5.60;;;;;;;8.31;96.22;99483.09;5030726;28;20030;-71
2022/09/28 00:42:09;;;;;;;8.32;5.65;;;;;;;8.28;96.02;99475.34;5032908;28;20042;-70
2022/09/28 00:44:53;;;;;;;6.78;5.57;;;;;;;8.26;96.13;99485.06;5032389;28;20046;-68
2022/09/28 00:47:48;;;;;;;7.05;5.88;;;;;;;8.22;95.74;99479.97;5031068;28;22106;-68
2022/09/28 00:50:25;;;;;;;9.55;6.20;;;;;;;8.17;95.92;99481.91;5030671;28;20042;-68
2022/09/28 00:52:56;;;;;;;7.65;5.90;;;;;;;8.18;96.09;99480.16;5027120;28;20053;-71
2022/09/28 00:55:59;;;;;;;8.88;6.38;;;;;;;8.18;96.08;99474.91;5032178;28;20479;-71
2022/09/28 00:58:32;;;;;;;7.00;5.65;;;;;;;8.16;96.12;99467.06;5039228;28;20038;-70
2022/09/28 01:00:59;;;;;;;9.40;6.35;;;;;;;8.14;95.92;99470.69;5030332;28;20045;-71
2022/09/28 01:03:28;;;;;;;8.45;6.55;;;;;;;8.14;96.21;99468.06;5030461;28;20129;-71
2022/09/28 01:06:01;;;;;;;9.23;6.72;;;;;;;8.13;96.25;99468.97;5036001;28;20045;-70
2022/09/28 01:08:31;;;;;;;11.85;7.15;;;;;;;8.09;96.05;99466.47;5029203;28;20054;-70
2022/09/28 01:10:59;;;;;;;12.13;6.80;;;;;;;8.06;96.00;99461.38;5026632;28;20118;-70
2022/09/28 01:13:30;;;;;;;10.48;7.30;;;;;;;8.03;95.76;99466.75;5045766;28;20049;-70
2022/09/28 01:16:22;;;;;;;7.68;6.45;;;;;;;8.01;95.78;99467.72;5031812;28;20419;-70
2022/09/28 01:19:37;;;;;;;8.82;7.00;;;;;;;7.97;95.90;99463.50;5043962;28;20078;-70
2022/09/28 01:22:34;;;;;;;9.82;6.88;;;;;;;7.96;96.09;99462.69;5029210;28;20042;-70
2022/09/28 01:25:23;;;;;;;10.55;7.13;;;;;;;7.98;96.37;99459.97;5042553;28;20038;-70
2022/09/28 01:28:24;;;;;;;8.15;6.95;;;;;;;7.98;96.55;99460.84;5026591;28;20045;-70
2022/09/28 01:31:13;;;;;;;10.35;7.28;;;;;;;7.97;96.48;99456.50;5029684;28;20054;-70
2022/09/28 01:33:46;;;;;;;12.07;8.32;;;;;;;8.00;96.25;99466.03;5021921;28;20049;-71
2022/09/28 01:36:30;;;;;;;9.95;7.53;;;;;;;7.97;96.04;99458.25;5031042;28;20038;-70
2022/09/28 01:39:23;;;;;;;12.95;8.43;;;;;;;7.92;96.31;99454.09;5028920;28;20046;-70
2022/09/28 01:41:56;;;;;;;10.82;7.90;;;;;;;7.91;95.87;99459.38;5029302;28;20456;-70
2022/09/28 01:44:29;;;;;;;11.38;8.32;;;;;;;7.89;96.15;99453.31;5011502;28;20078;-70
2022/09/28 01:47:03;;;;;;;12.82;8.75;;;;;;;7.90;95.89;99457.66;5020095;28;20038;-70
2022/09/28 01:49:41;;;;;;;11.40;9.30;;;;;;;7.86;95.99;99449.06;5011357;28;20043;-68
2022/09/28 01:52:40;;;;;;;13.18;9.00;;;;;;;7.83;96.05;99459.72;5029542;28;20082;-68
2022/09/28 01:55:28;;;;;;;14.55;9.18;;;;;;;7.82;95.95;99462.38;5029572;28;20431;-68
2022/09/28 01:58:10;;;;;;;12.38;9.30;;;;;;;7.81;96.10;99455.41;5025906;28;20935;-68
2022/09/28 02:00:45;;;;;;;13.32;9.18;;;;;;;7.82;96.15;99446.63;5028326;28;20132;-68
2022/09/28 02:03:28;;;;;;;18.08;9.90;;;;;;;7.81;96.33;99458.03;5018882;28;20048;-68
2022/09/28 02:06:15;;;;;;;;;;;;;;;7.81;96.58;99450.16;5043425;28;20042;-68
2022/09/28 02:08:52;;;;;;;13.45;9.77;;;;;;;7.83;96.76;99450.97;5038220;28;19932;-68
2022/09/28 02:11:24;;;;;;;15.43;10.88;;;;;;;7.86;97.00;99448.22;5027090;28;20054;-68
2022/09/28 02:14:00;;;;;;;16.95;10.98;;;;;;;7.89;97.13;99445.47;5025850;28;20154;-68
2022/09/28 02:16:39;;;;;;;13.90;10.88;;;;;;;7.87;96.77;99453.41;5045667;28;20042;-68
2022/09/28 02:19:14;;;;;;;14.35;11.45;;;;;;;7.89;97.03;99455.94;5030438;28;20046;-68
2022/09/28 02:22:06;;;;;;;14.02;11.32;;;;;;;7.86;96.64;99449.06;5042960;28;20059;-68
2022/09/28 02:24:53;;;;;;;18.60;11.57;;;;;;;7.74;96.51;99445.19;5044096;28;20038;-68
2022/09/28 02:27:40;;;;;;;14.98;11.50;;;;;;;7.67;96.20;99450.75;5010797;28;20523;-68
2022/09/28 02:30:08;;;;;;;16.58;11.80;;;;;;;7.60;96.27;99450.13;5025316;28;20512;-68
2022/09/28 02:32:41;;;;;;;17.95;12.43;;;;;;;7.52;96.22;99449.59;5043527;28;20072;-68
2022/09/28 02:35:13;;;;;;;15.82;11.50;;;;;;;7.50;96.53;99451.41;5025220;28;20073;-68
2022/09/28 02:37:41;;;;;;;16.27;11.63;;;;;;;7.45;96.59;99456.84;5026496;28;22155;-68
2022/09/28 02:40:22;;;;;;;16.88;12.45;;;;;;;7.40;96.46;99459.63;5027676;28;20042;-68
2022/09/28 02:43:22;;;;;;;20.42;13.05;;;;;;;7.38;96.92;99458.00;5028784;28;20046;-70
2022/09/28 02:46:32;;;;;;;22.60;11.98;;;;;;;7.35;96.72;99456.38;5027667;28;20172;-71
2022/09/28 02:49:28;;;;;;;18.73;12.90;;;;;;;7.32;97.06;99460.88;5043646;28;20052;-70
2022/09/28 02:52:34;;;;;;;19.38;12.40;;;;;;;7.31;97.08;99462.63;5043557;28;20038;-70
2022/09/28 02:55:29;;;;;;;21.15;12.68;;;;;;;7.30;97.51;99459.16;5023519;28;20065;-69
2022/09/28 02:58:12;;;;;;;22.73;11.93;;;;;;;7.34;97.37;99459.03;5025970;28;20050;-69
2022/09/28 03:01:07;;;;;;;19.10;12.45;;;;;;;7.39;97.64;99468.41;5022808;28;20034;-69
2022/09/28 03:03:56;;;;;;;;;;;;;;;7.43;97.68;99464.78;5029803;28;20042;-69
2022/09/28 03:06:38;;;;;;;16.95;11.95;;;;;;;7.50;98.17;99457.53;5044459;28;19921;-71
2022/09/28 03:09:27;;;;;;;16.67;11.35;;;;;;;7.57;98.05;99461.59;5044974;28;20104;-70
2022/09/28 03:12:02;;;;;;;16.60;12.38;;;;;;;7.61;98.03;99468.44;5029710;28;20133;-70
2022/09/28 03:14:29;;;;;;;15.95;11.35;;;;;;;7.65;97.66;99469.16;5042666;28;20092;-70
2022/09/28 03:16:57;;;;;;;16.67;11.70;;;;;;;7.66;97.99;99465.63;5043993;28;20058;-70
2022/09/28 03:19:31;;;;;;;18.77;11.90;;;;;;;7.70;97.94;99467.19;5026779;28;20121;-70
2022/09/28 03:21:59;;;;;;;17.52;10.73;;;;;;;7.74;97.88;99460.06;5044819;28;20068;-70
2022/09/28 03:24:27;;;;;;;14.52;10.38;;;;;;;7.76;97.63;99455.59;5043740;28;20041;-70
2022/09/28 03:26:54;;;;;;;14.75;10.68;;;;;;;7.79;97.37;99458.13;5030782;28;20042;-71
2022/09/28 03:29:22;;;;;;;13.85;10.60;;;;;;;7.79;97.31;99458.13;5027684;28;20120;-71
2022/09/28 03:31:56;;;;;;;14.88;10.88;;;;;;;7.81;97.13;99460.66;5020567;28;20050;-71
2022/09/28 03:34:23;;;;;;;15.60;11.40;;;;;;;7.83;96.98;99464.97;5028843;28;20515;-71
2022/09/28 03:36:50;;;;;;;15.45;10.88;;;;;;;7.82;97.12;99463.25;5041677;28;20062;-71
2022/09/28 03:39:18;;;;;;;16.77;10.90;;;;;;;7.85;96.87;99454.38;5029090;28;20500;-72
2022/09/28 03:41:45;;;;;;;15.20;11.25;;;;;;;7.86;96.73;99463.97;5029155;28;20049;-72
2022/09/28 03:44:12;;;;;;;15.55;10.82;;;;;;;7.85;96.51;99464.88;5030190;28;20045;-72
2022/09/28 03:46:40;;;;;;;18.27;12.40;;;;;;;7.85;96.42;99462.25;5032310;28;20046;-72
2022/09/28 03:49:08;;;;;;;15.77;11.25;;;;;;;7.86;96.58;99463.97;5039668;28;20048;-72
2022/09/28 03:51:36;;;;;;;15.80;11.50;;;;;;;7.88;96.64;99462.97;5028544;28;20034;-70
2022/09/28 03:54:03;;;;;;;14.75;11.52;;;;;;;7.91;96.94;99457.63;5044521;28;20125;-71
2022/09/28 03:56:31;;;;;;;16.60;12.40;;;;;;;7.95;97.01;99463.59;5044538;28;20129;-70
2022/09/28 03:58:58;;;;;;;18.17;12.65;;;;;;;7.96;96.99;99467.94;5027075;28;20449;-70
2022/09/28 04:01:26;;;;;;;16.75;12.55;;;;;;;7.98;96.92;99465.22;5024337;28;20042;-70
2022/09/28 04:03:54;;;;;;;18.75;12.02;;;;;;;8.00;97.47;99466.03;5041540;28;20050;-70
2022/09/28 04:06:24;;;;;;;20.30;12.05;;;;;;;8.01;97.34;99460.69;5020770;28;20062;-70
2022/09/28 04:08:52;;;;;;;17.90;12.48;;;;;;;8.03;96.84;99463.28;5027052;28;20108;-70
2022/09/28 04:11:19;;;;;;;18.67;11.98;;;;;;;8.05;97.06;99459.66;5045983;28;20104;-70
2022/09/28 04:13:49;;;;;;;17.58;13.25;;;;;;;8.07;97.15;99456.97;5030269;28;20042;-69
2022/09/28 04:16:17;;;;;;;18.48;12.40;;;;;;;8.10;97.30;99459.47;5046925;28;20074;-70
2022/09/28 04:18:54;;;;;;;16.33;11.80;;;;;;;8.12;97.06;99462.03;5030818;28;20058;-70
2022/09/28 04:21:44;;;;;;;18.80;12.30;;;;;;;8.12;97.00;99455.00;5046579;28;20129;-69
2022/09/28 04:24:13;;;;;;;16.08;11.63;;;;;;;8.12;97.00;99459.41;5033912;28;20089;-70
2022/09/28 04:26:40;;;;;;;17.25;12.52;;;;;;;8.11;96.57;99455.06;5043295;28;20118;-70
2022/09/28 04:29:15;;;;;;;20.63;12.05;;;;;;;8.08;96.59;99461.31;5031380;28;20053;-70
2022/09/28 04:31:52;;;;;;;16.27;11.95;;;;;;;8.06;96.42;99461.38;5043391;28;20035;-70
2022/09/28 04:34:22;;;;;;;16.00;12.73;;;;;;;8.06;96.42;99457.88;5038732;28;20042;-70
2022/09/28 04:36:50;;;;;;;18.83;12.60;;;;;;;8.06;96.56;99458.75;5043882;28;20541;-71
2022/09/28 04:39:20;;;;;;;17.42;12.88;;;;;;;8.05;96.54;99458.78;5037969;28;20050;-70
2022/09/28 04:41:50;;;;;;;17.83;10.95;;;;;;;8.05;96.38;99458.78;5030866;28;20082;-69
2022/09/28 04:44:18;;;;;;;13.20;10.80;;;;;;;8.06;96.41;99457.88;5029538;28;20522;-69
2022/09/28 04:46:46;;;;;;;15.30;11.30;;;;;;;8.07;96.64;99455.22;5043584;28;20053;-69
2022/09/28 04:49:35;;;;;;;16.20;10.40;;;;;;;8.13;96.83;99453.22;5024183;28;20125;-70
2022/09/28 04:52:08;;;;;;;15.13;11.05;;;;;;;8.21;96.86;99461.63;5047038;28;20633;-69
2022/09/28 04:54:35;;;;;;;16.48;9.65;;;;;;;8.21;96.01;99464.25;5033641;28;20048;-69
2022/09/28 04:57:03;;;;;;;11.60;9.00;;;;;;;8.14;95.33;99455.78;5029221;28;20511;-69
2022/09/28 04:59:32;;;;;;;14.05;9.43;;;;;;;8.10;95.37;99467.34;5028602;28;20046;-69
2022/09/28 05:01:59;;;;;;;16.38;9.30;;;;;;;8.05;95.39;99466.66;5034698;28;20045;-69
2022/09/28 05:04:45;;;;;;;12.90;8.68;;;;;;;7.98;95.42;99462.59;5033366;28;20052;-69
2022/09/28 05:07:36;;;;;;;12.48;9.13;;;;;;;7.92;95.38;99461.97;5047015;28;20042;-69
2022/09/28 05:10:06;;;;;;;12.07;8.73;;;;;;;7.84;95.38;99458.75;5031935;28;20076;-69
2022/09/28 05:12:33;;;;;;;11.55;8.32;;;;;;;7.77;94.94;99467.81;5026109;28;20225;-70
2022/09/28 05:15:00;;;;;;;12.20;8.75;;;;;;;7.68;95.09;99470.81;5027363;28;20580;-69
2022/09/28 05:17:27;;;;;;;12.88;8.85;;;;;;;7.61;95.38;99473.69;5030869;28;20050;-69
2022/09/28 05:20:08;;;;;;;14.93;8.98;;;;;;;7.55;95.52;99470.44;5046125;28;20069;-69
2022/09/28 05:22:36;;;;;;;14.73;9.45;;;;;;;7.51;95.53;99474.09;5032396;28;20042;-70
2022/09/28 05:25:07;;;;;;;12.50;8.60;;;;;;;7.46;95.71;99469.03;5029319;28;20504;-69
2022/09/28 05:27:47;;;;;;;11.75;8.35;;;;;;;7.39;95.88;99480.69;5029981;28;20042;-69
2022/09/28 05:30:34;;;;;;;14.60;8.68;;;;;;;7.35;96.01;99487.81;5027106;28;20045;-69
2022/09/28 05:33:26;;;;;;;14.30;8.65;;;;;;;7.35;96.36;99482.59;5045934;28;20045;-69
2022/09/28 05:36:10;;;;;;;14.85;8.40;;;;;;;7.36;96.52;99479.06;5028374;28;20049;-69
2022/09/28 05:38:37;;;;;;;13.13;8.98;;;;;;;7.41;96.99;99479.72;5030081;28;20068;-70
2022/09/28 05:41:05;;;;;;;14.88;8.48;;;;;;;7.44;97.01;99481.34;5040446;28;20855;-70
2022/09/28 05:43:33;;;;;;;9.73;7.63;;;;;;;7.45;96.82;99483.94;5045302;28;20046;-70
2022/09/28 05:46:05;;;;;;;12.27;7.40;;;;;;;7.48;96.93;99479.50;5030348;28;20038;-70
2022/09/28 05:48:37;;;;;;;12.25;7.53;;;;;;;7.45;96.57;99483.06;5024167;28;20038;-69
2022/09/28 05:51:05;;;;;;;12.50;7.72;;;;;;;7.42;96.64;99481.41;5031019;28;20053;-69
2022/09/28 05:53:32;;;;;;;11.88;7.63;;;;;;;7.40;96.50;99479.78;5027716;28;20089;-69
2022/09/28 05:56:01;;;;;;;12.70;7.95;;;;;;;7.41;96.47;99484.13;5028666;28;20061;-69
2022/09/28 05:58:30;;;;;;;11.95;7.95;;;;;;;7.40;96.43;99485.03;5038339;28;20049;-69
2022/09/28 06:00:59;;;;;;;11.88;7.13;;;;;;;7.37;96.51;99486.00;5034539;28;20038;-69
2022/09/28 06:03:27;;;;;;;13.85;8.05;;;;;;;7.37;96.44;99493.00;5030120;28;20038;-70
2022/09/28 06:05:54;;;;;;;12.38;7.72;;;;;;;7.35;96.29;99494.81;5029704;28;20100;-69
2022/09/28 06:08:23;;;;;;;10.52;7.55;;;;;;;7.34;96.30;99496.59;5045865;28;20046;-70
2022/09/28 06:11:01;;;;;;;;;;;;;;;7.33;96.35;99502.75;5044799;28;20488;-70
2022/09/28 06:13:28;;;;;;;13.52;7.05;;;;;;;7.36;96.24;99505.25;5044349;28;19936;-69
2022/09/28 06:15:55;;;;;;;10.40;7.10;;;;;;;7.41;96.29;99511.16;5027781;28;20048;-70
2022/09/28 06:18:22;;;;;;;11.25;6.57;;;;;;;7.42;96.11;99512.88;5044886;28;20536;-70
2022/09/28 06:21:17;;;;;;;9.45;5.78;;;;;;;7.40;96.16;99519.94;5014860;28;20509;-70
2022/09/28 06:23:45;;;;;;;11.27;5.70;;;;;;;7.37;96.35;99514.84;5022531;28;20881;-70
2022/09/28 06:26:16;;;;;;;11.02;6.38;;;;;;;7.35;96.28;99521.91;5047688;28;20046;-69
2022/09/28 06:28:44;;;;;;;9.98;5.95;;;;;;;7.35;96.39;99527.16;5029975;28;20113;-69
2022/09/28 06:31:12;;;;;;;8.40;5.32;;;;;;;7.33;96.34;99523.72;5046269;28;20460;-71
2022/09/28 06:33:44;;;;;;;9.80;5.28;;;;;;;7.33;96.52;99525.47;5030978;28;20042;-69
2022/09/28 06:36:12;;;;;;;7.65;5.35;;;;;;;7.37;96.46;99527.97;5047866;28;20034;-69
2022/09/28 06:38:39;;;;;;;7.57;5.60;;;;;;;7.43;96.25;99529.47;5030420;28;20046;-69
2022/09/28 06:41:06;;;;;;;9.85;5.38;;;;;;;7.50;96.37;99537.94;5031389;28;20042;-69
2022/09/28 06:43:34;;;;;;;11.13;4.53;;;;;;;7.54;96.30;99534.31;5030714;28;20531;-69
2022/09/28 06:46:19;;;;;;;7.22;4.80;;;;;;;7.63;96.32;99535.72;5031794;28;20046;-69
2022/09/28 06:48:50;;;;;;;8.80;4.60;;;;;;;7.73;96.11;99531.84;5031344;28;20038;-69
2022/09/28 06:51:25;;;;;;;6.35;4.20;;;;;;;7.80;95.93;99533.28;5047203;28;20040;-69
2022/09/28 06:53:55;;;;;;;6.22;4.45;;;;;;;7.89;96.08;99535.53;5029983;28;20042;-69
2022/09/28 06:56:36;;;;;;;10.02;4.15;;;;;;;8.01;96.13;99533.34;5046681;28;20044;-69
2022/09/28 06:59:04;;;;;;;9.93;4.10;;;;;;;8.13;95.61;99539.84;5030237;28;20054;-69
2022/09/28 07:01:32;;;;;;;7.43;4.03;;;;;;;8.27;95.73;99537.53;5044446;28;21050;-69
2022/09/28 07:04:25;;;;;;;5.25;3.30;;;;;;;8.45;95.61;99535.03;5031641;28;20053;-69
2022/09/28 07:06:53;;;;;;;8.00;3.80;;;;;;;8.54;95.62;99537.31;5032083;28;20073;-69
2022/09/28 07:09:38;;;;;;;5.53;3.13;;;;;;;8.61;95.16;99537.91;5032065;28;20034;-69
2022/09/28 07:12:40;;;;;;;5.40;2.97;;;;;;;8.65;94.56;99539.47;5037780;28;20065;-69
2022/09/28 07:15:24;;;;;;;3.75;3.00;;;;;;;8.67;94.65;99548.13;5030201;28;20100;-69
2022/09/28 07:17:57;;;;;;;3.47;2.63;;;;;;;8.75;94.50;99542.56;5030703;28;20054;-69
2022/09/28 07:20:34;;;;;;;4.55;2.42;;;;;;;8.88;94.67;99546.38;5029817;28;20117;-69
2022/09/28 07:23:17;;;;;;;5.40;2.50;;;;;;;9.07;94.49;99545.53;5027635;28;20070;-69
2022/09/28 07:26:05;;;;;;;5.07;1.92;;;;;;;9.23;92.35;99548.34;5026786;28;20463;-69
2022/09/28 07:29:01;;;;;;;5.40;2.03;;;;;;;9.30;91.64;99550.63;5028246;28;20841;-69
2022/09/28 07:31:53;;;;;;;5.32;1.98;;;;;;;9.38;91.33;99544.16;5030030;28;20030;-69
2022/09/28 07:34:43;;;;;;;4.70;1.80;;;;;;;9.44;90.51;99560.50;5030041;28;21103;-69
2022/09/28 07:37:17;;;;;;;5.97;2.05;;;;;;;9.50;90.27;99553.25;5018382;28;20046;-69
2022/09/28 07:42:35;;;;;;;3.28;1.60;;;;;;;9.64;89.00;99567.47;5028011;28;20516;-69
2022/09/28 07:45:03;;;;;;;6.25;2.10;;;;;;;9.70;89.58;99568.13;5024883;28;20054;-69
2022/09/28 07:47:31;;;;;;;3.20;1.67;;;;;;;9.77;88.92;99575.63;5023915;28;20503;-69
2022/09/28 07:50:16;;;;;;;9.57;1.98;;;;;;;9.81;87.87;99573.72;5012125;28;20045;-69
2022/09/28 07:53:04;;;;;;;2.83;1.50;;;;;;;9.84;87.94;99576.19;5009287;28;20479;-69
2022/09/28 07:55:55;;;;;;;6.68;1.67;;;;;;;9.89;87.83;99579.47;5041435;28;20038;-69
2022/09/28 07:58:36;;;;;;;4.82;1.52;;;;;;;9.94;87.95;99577.47;5029972;28;20057;-70
2022/09/28 08:01:38;;;;;;;3.95;1.90;;;;;;;10.03;88.08;99583.22;5024620;28;20067;-70
2022/09/28 08:04:08;;;;;;;5.40;1.75;;;;;;;10.09;87.34;99593.47;5029870;28;20076;-69
2022/09/28 08:06:36;;;;;;;4.88;1.73;;;;;;;10.10;87.46;99589.91;5044834;28;20128;-70
2022/09/28 08:09:04;;;;;;;6.80;1.65;;;;;;;10.26;86.82;99587.38;5029644;28;20046;-70
2022/09/28 08:12:04;;;;;;;2.75;1.58;;;;;;;10.35;86.02;99588.69;5030748;28;20049;-70
2022/09/28 08:14:45;;;;;;;2.70;1.48;;;;;;;10.43;85.80;99598.91;5029684;28;20452;-70
2022/09/28 08:17:28;;;;;;;2.15;1.17;;;;;;;10.45;84.85;99599.69;5029018;28;20051;-70
2022/09/28 08:22:44;;;;;;;5.72;1.58;;;;;;;10.34;84.66;99598.41;5029638;28;20072;-70
2022/09/28 08:25:12;;;;;;;3.67;1.60;;;;;;;10.30;85.15;99604.72;5029461;28;20135;-69
2022/09/28 08:27:39;;;;;;;4.03;1.65;;;;;;;10.37;85.72;99611.47;5028735;28;20889;-69
2022/09/28 08:30:08;;;;;;;2.40;1.42;;;;;;;10.52;85.96;99607.22;5027929;28;20046;-69
2022/09/28 08:33:01;;;;;;;4.38;1.30;;;;;;;10.66;85.45;99608.28;5026931;28;20058;-69
2022/09/28 08:35:45;;;;;;;1.90;1.20;;;;;;;10.87;83.87;99611.63;5030137;28;20100;-69
2022/09/28 08:38:17;;;;;;;1.90;1.13;;;;;;;11.15;83.32;99613.66;5029323;28;20523;-69
2022/09/28 08:41:22;;;;;;;3.83;1.23;;;;;;;11.31;83.37;99615.53;5029761;28;20248;-69
2022/09/28 08:44:24;;;;;;;1.88;0.90;;;;;;;11.36;80.02;99613.47;5029503;28;20053;-70
2022/09/28 08:50:32;;;;;;;2.17;1.20;;;;;;;11.17;81.21;99616.25;5029209;28;20464;-70
2022/09/28 08:53:40;;;;;;;3.30;1.10;;;;;;;11.24;81.04;99612.34;5020185;28;20524;-70
2022/09/28 08:56:41;;;;;;;1.40;0.90;;;;;;;11.46;79.53;99621.75;5048602;28;20037;-70
2022/09/28 08:59:21;;;;;;;1.60;1.40;;;;;;;11.44;80.12;99621.84;5049189;28;20519;-70
2022/09/28 09:02:02;;;;;;;3.47;0.90;;;;;;;11.55;79.64;99615.16;5032232;28;20590;-70
2022/09/28 09:04:32;;;;;;;2.78;1.13;;;;;;;11.57;79.73;99619.41;5044733;28;20124;-70
2022/09/28 09:07:53;;;;;;;2.38;0.98;;;;;;;11.68;79.53;99616.16;5037947;28;20065;-70
2022/09/28 09:10:59;;;;;;;3.55;1.27;;;;;;;11.86;78.58;99616.09;5020674;28;20609;-70
2022/09/28 09:14:07;;;;;;;3.67;1.00;;;;;;;12.23;79.29;99629.94;5033146;28;20073;-70
2022/09/28 09:17:14;;;;;;;2.13;1.10;;;;;;;12.63;78.38;99624.13;5046006;28;20038;-70
2022/09/28 09:20:41;;;;;;;5.60;1.42;;;;;;;12.87;79.37;99627.16;5024966;28;20117;-70
2022/09/28 09:23:41;;;;;;;7.03;1.70;;;;;;;12.88;75.63;99634.13;5026175;28;20589;-70
2022/09/28 09:26:31;;;;;;;5.05;1.23;;;;;;;12.74;75.68;99635.81;5041189;28;20112;-70
2022/09/28 09:29:11;;;;;;;3.53;1.10;;;;;;;12.65;76.04;99633.72;5028363;28;20046;-70
2022/09/28 09:32:11;;;;;;;3.35;1.17;;;;;;;12.59;75.73;99641.97;5028231;28;20052;-70
2022/09/28 09:35:30;;;;;;;2.75;1.50;;;;;;;12.70;76.71;99636.91;5027868;28;20050;-70
2022/09/28 09:38:34;;;;;;;3.45;1.23;;;;;;;12.75;77.30;99639.28;5023766;28;20046;-70
2022/09/28 09:41:57;;;;;;;5.65;1.30;;;;;;;12.75;75.32;99641.94;5032178;28;20053;-70
2022/09/28 09:45:25;;;;;;;2.78;1.20;;;;;;;12.51;75.76;99649.50;5027632;28;20139;-70
2022/09/28 09:48:19;;;;;;;3.92;1.00;;;;;;;12.46;76.05;99662.16;5031652;28;20042;-70
2022/09/28 09:50:54;;;;;;;1.70;1.20;;;;;;;12.68;75.39;99652.00;5043773;28;20133;-70
2022/09/28 09:53:59;;;;;;;2.63;1.00;;;;;;;13.07;75.76;99644.47;5045181;28;20082;-70
2022/09/28 09:56:46;;;;;;;1.83;0.95;;;;;;;13.16;75.30;99645.72;5041357;28;20575;-70
2022/09/28 09:59:26;;;;;;;9.95;1.10;;;;;;;13.50;72.96;99649.84;5035659;28;20070;-71
2022/09/28 10:02:28;;;;;;;10.88;1.45;;;;;;;13.80;72.65;99646.25;5017928;28;20104;-70
2022/09/28 10:05:24;;;;;;;2.72;1.50;;;;;;;14.13;72.99;99646.84;5026675;28;20439;-70
2022/09/28 10:08:03;;;;;;;4.07;1.38;;;;;;;14.45;72.65;99638.59;5025389;28;20093;-70
2022/09/28 10:10:37;;;;;;;3.45;1.40;;;;;;;14.63;69.51;99639.19;5012937;28;20043;-70
2022/09/28 10:13:10;;;;;;;3.13;1.20;;;;;;;14.31;69.57;99635.97;5011518;28;20062;-70
2022/09/28 10:15:40;;;;;;;3.60;1.20;;;;;;;14.03;69.85;99648.38;5027274;28;20069;-70
2022/09/28 10:18:20;;;;;;;3.20;1.30;;;;;;;13.91;70.12;99645.56;5030906;28;20054;-70
2022/09/28 10:21:16;;;;;;;1.80;1.10;;;;;;;13.93;70.43;99643.66;5032381;28;20878;-71
2022/09/28 10:24:32;;;;;;;3.58;1.20;;;;;;;14.03;69.65;99633.34;5046450;28;20042;-70
2022/09/28 10:27:14;;;;;;;5.63;1.40;;;;;;;13.88;69.89;99642.25;5032366;28;20042;-70
2022/09/28 10:29:53;;;;;;;1.67;1.08;;;;;;;13.75;70.55;99650.13;5031498;28;20046;-71
2022/09/28 10:32:26;;;;;;;2.03;0.90;;;;;;;13.69;68.76;99653.13;5032243;28;20050;-70
2022/09/28 10:35:17;;;;;;;1.67;0.90;;;;;;;13.57;68.37;99649.47;5041851;28;20050;-70
2022/09/28 10:37:56;;;;;;;2.50;0.70;;;;;;;13.44;69.84;99649.38;5023596;28;20057;-70
2022/09/28 10:40:46;;;;;;;1.52;0.80;;;;;;;13.34;69.96;99644.59;5011283;28;20039;-70
2022/09/28 10:43:23;;;;;;;1.55;0.88;;;;;;;13.27;68.45;99647.72;5011389;28;20864;-70
2022/09/28 10:46:03;;;;;;;1.10;0.70;;;;;;;13.40;70.14;99648.72;5031487;28;20133;-70
2022/09/28 10:48:54;;;;;;;2.60;0.90;;;;;;;13.43;69.17;99639.72;5047061;28;20052;-70
2022/09/28 10:51:50;;;;;;;6.57;1.10;;;;;;;13.46;70.43;99644.84;5046287;28;20069;-70
2022/09/28 10:54:29;;;;;;;10.63;1.10;;;;;;;13.49;69.65;99661.38;5046250;28;20120;-69
2022/09/28 10:56:59;;;;;;;2.95;0.70;;;;;;;13.47;69.97;99650.03;5031441;28;20041;-69
2022/09/28 10:59:45;;;;;;;4.40;0.73;;;;;;;13.46;70.06;99644.84;5047250;28;20066;-70
2022/09/28 11:02:41;;;;;;;3.58;0.60;;;;;;;13.44;69.79;99649.38;5027215;28;20050;-70
2022/09/28 11:05:28;;;;;;;1.75;0.63;;;;;;;13.43;69.25;99651.16;5046953;28;20048;-69
2022/09/28 11:08:06;;;;;;;1.42;0.50;;;;;;;13.39;69.53;99649.66;5048303;28;20057;-69
2022/09/28 11:10:43;;;;;;;1.23;0.70;;;;;;;13.42;68.63;99653.91;5045401;28;20042;-69
2022/09/28 11:13:13;;;;;;;1.52;0.60;;;;;;;13.50;68.71;99649.84;5030850;28;20046;-69
2022/09/28 11:15:45;;;;;;;3.03;0.80;;;;;;;13.71;67.92;99651.25;5036075;28;20482;-69
2022/09/28 11:18:31;;;;;;;3.67;1.05;;;;;;;13.83;69.39;99631.94;5063637;28;20129;-68
2022/09/28 11:21:21;;;;;;;4.30;0.73;;;;;;;14.04;69.50;99644.78;5034557;28;20045;-68
2022/09/28 11:24:14;;;;;;;2.22;0.95;;;;;;;14.06;69.56;99638.44;5022503;28;20041;-69
2022/09/28 11:26:51;;;;;;;6.32;1.35;;;;;;;14.09;69.21;99646.19;5061291;28;20474;-69
2022/09/28 11:29:40;;;;;;;9.65;1.25;;;;;;;14.04;68.77;99636.81;5047625;28;20033;-69
2022/09/28 11:32:22;;;;;;;2.70;1.25;;;;;;;13.93;68.81;99640.19;5035680;28;20041;-69
2022/09/28 11:35:26;;;;;;;3.22;1.15;;;;;;;13.81;68.70;99645.31;5033722;28;20120;-69
2022/09/28 11:38:10;;;;;;;7.35;1.38;;;;;;;13.92;67.70;99647.25;5045369;28;20050;-69
2022/09/28 11:42:04;;;;;;;5.10;1.77;;;;;;;14.20;68.25;99636.69;5043420;28;20096;-69
2022/09/28 11:44:43;;;;;;;4.63;1.20;;;;;;;14.44;68.08;99635.09;5041197;28;20164;-69
2022/09/28 11:47:45;;;;;;;4.30;1.55;;;;;;;14.71;68.51;99630.72;5045148;28;20177;-69
2022/09/28 11:50:47;;;;;;;2.30;1.10;;;;;;;14.97;66.73;99636.94;5040288;28;20121;-67
2022/09/28 11:53:29;;;;;;;0.85;0.57;;;;;;;15.19;66.13;99636.34;5039233;28;20049;-70
2022/09/28 11:56:16;;;;;;;1.92;0.60;;;;;;;15.32;63.18;99631.03;5040733;28;20109;-69
2022/09/28 11:58:56;;;;;;;;;;;;;;;15.33;64.81;99632.72;5044597;28;20060;-69
2022/09/28 12:01:52;;;;;;;1.70;0.60;;;;;;;15.72;62.12;99632.66;5039762;28;19931;-69
2022/09/28 12:04:45;;;;;;;1.13;0.50;;;;;;;15.90;61.27;99635.03;5026514;28;20042;-69
2022/09/28 12:07:37;;;;;;;2.78;0.93;;;;;;;15.99;62.77;99634.34;5038342;28;20050;-69
2022/09/28 12:10:25;;;;;;;1.98;0.65;;;;;;;15.73;62.54;99634.38;5039538;28;20049;-69
2022/09/28 12:13:10;;;;;;;3.83;0.75;;;;;;;15.50;63.48;99630.69;5031704;28;20046;-69
2022/09/28 12:16:19;;;;;;;3.08;0.80;;;;;;;15.21;62.88;99631.75;5021524;28;20042;-70
2022/09/28 12:19:33;;;;;;;1.77;0.75;;;;;;;14.84;64.20;99634.28;5015546;28;20051;-69
2022/09/28 12:22:23;;;;;;;1.35;0.70;;;;;;;14.63;64.79;99633.88;5041595;28;20049;-69
2022/09/28 12:24:56;;;;;;;2.90;0.60;;;;;;;14.43;63.88;99633.41;5045438;28;20042;-69
2022/09/28 12:27:37;;;;;;;1.95;0.70;;;;;;;14.29;65.00;99633.44;5030951;28;20092;-68
2022/09/28 12:30:21;;;;;;;3.65;0.75;;;;;;;14.52;64.94;99626.63;5037757;28;20038;-69
2022/09/28 12:33:16;;;;;;;1.17;0.50;;;;;;;14.90;65.41;99638.31;5033799;28;20042;-70
2022/09/28 12:36:12;;;;;;;3.70;0.80;;;;;;;15.30;64.52;99634.75;5034934;28;20049;-68
2022/09/28 12:39:09;;;;;;;1.85;0.60;;;;;;;15.27;65.42;99632.31;5032752;28;20042;-68
2022/09/28 12:42:31;;;;;;;1.35;0.60;;;;;;;15.06;63.08;99625.69;5031706;28;20061;-70
2022/09/28 12:45:36;;;;;;;0.90;0.50;;;;;;;14.78;63.92;99620.56;5046380;28;20038;-70
2022/09/28 12:48:35;;;;;;;8.35;1.05;;;;;;;14.95;64.52;99625.59;5035051;28;20065;-70